Sunday, August 19, 2018, 1:51 PM EDT
Back to Local

KGTB, Fort Drum / Wheeler-sack U. S. Army Airfield

Location: Fort Drum, NY, United States Lat: 44.05
Local Time: 1:51 PM EDT (17:51 GMT) Lon: -75.733
Time Zone: US/Eastern Elev: 679 ft

Show me the last for .
Show Decoded

2018-08-19 12:56 METAR KGTB 191656Z AUTO 08004KT 10SM CLR 25/16 A3004 RMK AO2 DZB40E41DZB42E50
                 SLP170 P0000 T02480162 TSNO $ =
2018-08-19 12:50 METAR KGTB 191650Z AUTO 16005KT 10SM FEW037 FEW200 24/16 A3004 RMK AO2
                 DZB40E41DZB42E50 SLP171 TSNO $ =
2018-08-19 12:42 METAR KGTB 191642Z AUTO 13006KT 10SM -DZ FEW037 24/16 A3004 RMK AO2
                 DZB40E41DZB42 SLP171 TSNO $ =
2018-08-19 12:41 METAR KGTB 191641Z AUTO 13005KT 10SM FEW037 24/16 A3004 RMK AO2 DZB40E41 SLP171
                 TSNO $ =
2018-08-19 12:40 METAR KGTB 191640Z AUTO 14003KT 10SM -DZ FEW037 24/16 A3004 RMK AO2 DZB40 SLP171
                 TSNO $ =
2018-08-19 11:56 METAR KGTB 191556Z AUTO 15006KT 10SM CLR 24/16 A3005 RMK AO2 SLP174 T02380163
                 TSNO $ =
2018-08-19 10:56 METAR KGTB 191456Z AUTO 15008KT 10SM SCT042 23/16 A3005 RMK AO2 SLP174 T02250160
                 51007 TSNO $ =
2018-08-19 09:56 METAR KGTB 191356Z AUTO 14008KT 10SM OVC042 21/17 A3005 RMK AO2 SLP175 T02090167
                 TSNO $ =
2018-08-19 08:56 METAR KGTB 191256Z AUTO 14005KT 10SM CLR 19/18 A3004 RMK AO2 SLP171 T01910181
                 TSNO $ =
2018-08-19 07:56 METAR KGTB 191156Z AUTO 12004KT 10SM CLR 16/16 A3003 RMK AO2 SLP168 T01620162
                 10162 20128 52014 TSNO $ =
2018-08-19 06:56 METAR KGTB 191056Z AUTO 00000KT 10SM CLR 13/13 A3002 RMK AO2 SLP165 T01340134
                 TSNO $ =
2018-08-19 05:56 METAR KGTB 190956Z AUTO 00000KT 10SM CLR 14/14 A3000 RMK AO2 SLP158 T01410141
                 TSNO $ =
2018-08-19 04:56 METAR KGTB 190856Z AUTO 10004KT 10SM CLR 15/15 A2999 RMK AO2 SLP154 T01510151
                 53008 TSNO $ =
2018-08-19 03:56 METAR KGTB 190756Z AUTO 12003KT 10SM CLR 15/15 A2998 RMK AO2 SLP151 T01530153
                 TSNO $ =
2018-08-19 02:56 METAR KGTB 190656Z AUTO 09006KT 10SM CLR 16/16 A2997 RMK AO2 SLP147 T01570157
                 TSNO $ =
2018-08-19 01:56 METAR KGTB 190556Z AUTO 11004KT 10SM CLR 16/16 A2997 RMK AO2 SLP147 T01580158
                 10194 20158 56003 TSNO $ =
2018-08-19 00:56 METAR KGTB 190456Z AUTO 11004KT 10SM CLR 16/16 A2997 RMK AO2 SLP148 T01630163
                 402270162 TSNO $ =
2018-08-18 23:56 METAR KGTB 190356Z AUTO 13004KT 10SM CLR 17/17 A2997 RMK AO2 SLP148 T01670167
                 TSNO $ =
2018-08-18 22:56 METAR KGTB 190256Z AUTO 12003KT 10SM CLR 18/18 A2998 RMK AO2 SLP151 T01750175
                 52010 TSNO $ =
2018-08-18 21:56 METAR KGTB 190156Z AUTO 09005KT 10SM CLR 18/18 A2997 RMK AO2 SLP148 T01780178
                 TSNO $ =
2018-08-18 20:56 METAR KGTB 190056Z AUTO 07005KT 10SM CLR 18/18 A2996 RMK AO2 SLP145 T01830183
                 TSNO $ =
2018-08-18 19:56 METAR KGTB 182356Z AUTO 05005KT 10SM CLR 20/19 A2994 RMK AO2 SLP138 60000
                 T01950193 10227 20195 51007 TSNO $ =
2018-08-18 18:56 METAR KGTB 182256Z AUTO 06007KT 10SM CLR 21/18 A2994 RMK AO2 DZB23E31DZB42E45
                 SLP137 P0000 T02110175 TSNO $ =
2018-08-18 18:26 METAR KGTB 182226Z AUTO 05009KT 10SM CLR 22/17 A2994 RMK AO2 DZB23 SLP137 TSNO $
                 =
2018-08-18 18:23 METAR KGTB 182223Z AUTO 05010KT 10SM -DZ FEW035 22/17 A2994 RMK AO2 DZB23 SLP137
                 TSNO $ =
2018-08-18 17:56 METAR KGTB 182156Z AUTO 04009KT 10SM FEW034 22/17 A2993 RMK AO2 SLP134 T02180169
                 TSNO $ =
2018-08-18 16:56 METAR KGTB 182056Z AUTO 05012KT 10SM BKN038 23/17 A2992 RMK AO2 DZB28E36DZB43E53
                 SLP130 P0000 60000 T02270167 55001 TSNO $ =
2018-08-18 16:53 METAR KGTB 182053Z AUTO 05013KT 10SM BKN038 23/17 A2992 RMK AO2 DZB28E36DZB43E53
                 SLP130 TSNO $ =
2018-08-18 16:43 METAR KGTB 182043Z AUTO 04012KT 10SM -DZ BKN038 22/17 A2992 RMK AO2
                 DZB28E36DZB43 SLP130 TSNO $ =
2018-08-18 16:36 METAR KGTB 182036Z AUTO 03012KT 10SM OVC038 22/17 A2992 RMK AO2 DZB28E36 SLP130
                 TSNO $ =
2018-08-18 16:28 METAR KGTB 182028Z AUTO 04012KT 10SM -DZ BKN038 22/17 A2992 RMK AO2 DZB28 SLP130
                 TSNO $ =
2018-08-18 15:56 METAR KGTB 181956Z AUTO 02009KT 10SM BKN036 BKN190 22/18 A2992 RMK AO2 SLP130
                 T02220175 TSNO $ =
2018-08-18 14:56 METAR KGTB 181856Z AUTO 04010KT 10SM SCT030 BKN036 22/17 A2992 RMK AO2 SLP130
                 T02220171 TSNO $ =
2018-08-18 13:56 METAR KGTB 181756Z AUTO 03012KT 10SM FEW025 BKN032 22/17 A2992 RMK AO2 SLP130
                 T02210172 10221 20162 58002 TSNO $ =

Support USWX by starting your Amazon purchase here.